createdAt,value
2022-08-21T00:01:52.591Z,78.00
2022-08-21T00:04:22.091Z,77.80
2022-08-21T00:06:50.530Z,77.80
2022-08-21T00:09:18.397Z,77.70
2022-08-21T00:11:45.538Z,77.90
2022-08-21T00:14:13.797Z,77.80
2022-08-21T00:16:40.923Z,77.90
2022-08-21T00:19:09.386Z,77.90
2022-08-21T00:21:39.226Z,77.90
2022-08-21T00:24:06.445Z,77.90
2022-08-21T00:26:35.200Z,78.20
2022-08-21T00:29:06.443Z,78.60
2022-08-21T00:31:33.785Z,78.00
2022-08-21T00:34:01.409Z,78.20
2022-08-21T00:36:28.897Z,78.00
2022-08-21T00:38:56.140Z,77.50
2022-08-21T00:41:37.082Z,78.30
2022-08-21T00:44:10.851Z,77.70
2022-08-21T00:46:38.679Z,77.50
2022-08-21T00:49:07.037Z,77.50
2022-08-21T00:51:59.175Z,77.70
2022-08-21T00:54:28.120Z,78.10
2022-08-21T00:57:05.415Z,78.30
2022-08-21T00:59:39.840Z,78.40
2022-08-21T01:02:08.789Z,78.40
2022-08-21T01:04:36.005Z,78.70
2022-08-21T01:07:05.801Z,78.30
2022-08-21T01:09:33.262Z,78.20
2022-08-21T01:12:00.587Z,78.50
2022-08-21T01:14:31.030Z,78.50
2022-08-21T01:17:00.160Z,78.60
2022-08-21T01:19:28.529Z,78.20
2022-08-21T01:21:55.795Z,78.30
2022-08-21T01:24:25.757Z,78.10
2022-08-21T01:26:53.367Z,78.30
2022-08-21T01:29:38.169Z,78.40
2022-08-21T01:32:09.284Z,77.80
2022-08-21T01:34:39.241Z,78.00
2022-08-21T01:37:07.088Z,78.20
2022-08-21T01:39:36.686Z,78.20
2022-08-21T01:42:04.141Z,77.70
2022-08-21T01:44:31.086Z,77.90
2022-08-21T01:47:02.135Z,78.10
2022-08-21T01:49:31.984Z,78.10
2022-08-21T01:51:58.852Z,77.70
2022-08-21T01:54:25.675Z,77.60
2022-08-21T01:56:56.723Z,77.80
2022-08-21T01:59:25.269Z,77.90
2022-08-21T02:01:55.072Z,78.90
2022-08-21T02:04:22.561Z,79.10
2022-08-21T02:06:51.932Z,79.10
2022-08-21T02:09:22.665Z,78.50
2022-08-21T02:11:52.258Z,78.00
2022-08-21T02:14:32.064Z,78.60
2022-08-21T02:17:05.364Z,78.80
2022-08-21T02:19:40.454Z,79.10
2022-08-21T02:22:10.783Z,79.10
2022-08-21T02:24:55.142Z,79.50
2022-08-21T02:27:26.175Z,79.00
2022-08-21T02:29:57.869Z,78.80
2022-08-21T02:32:25.274Z,78.10
2022-08-21T02:34:52.413Z,78.40
2022-08-21T02:37:19.765Z,78.00
2022-08-21T02:39:46.771Z,78.20
2022-08-21T02:42:13.620Z,78.20
2022-08-21T02:44:42.756Z,79.00
2022-08-21T02:47:09.595Z,79.00
2022-08-21T02:49:36.381Z,78.10
2022-08-21T02:52:03.938Z,78.30
2022-08-21T02:54:30.753Z,78.10
2022-08-21T02:56:58.193Z,78.50
2022-08-21T02:59:25.069Z,79.10
2022-08-21T03:01:52.444Z,78.60
2022-08-21T03:04:19.830Z,78.80
2022-08-21T03:06:46.640Z,78.30
2022-08-21T03:09:13.963Z,78.20
2022-08-21T03:11:41.290Z,78.40
2022-08-21T03:14:08.549Z,78.70
2022-08-21T03:16:36.023Z,78.60
2022-08-21T03:19:04.214Z,78.50
2022-08-21T03:21:31.391Z,78.70
2022-08-21T03:23:58.219Z,78.70
2022-08-21T03:26:26.713Z,78.70
2022-08-21T03:28:54.769Z,78.90
2022-08-21T03:31:22.652Z,78.70
2022-08-21T03:33:49.509Z,78.70
2022-08-21T03:36:17.054Z,78.50
2022-08-21T03:38:43.919Z,78.80
2022-08-21T03:41:10.732Z,78.80
2022-08-21T03:43:37.791Z,78.80
2022-08-21T03:46:06.530Z,78.90
2022-08-21T03:48:37.194Z,79.00
2022-08-21T03:51:05.217Z,79.00
2022-08-21T03:53:32.245Z,79.00
2022-08-21T03:55:59.388Z,78.90
2022-08-21T03:58:29.557Z,79.10
2022-08-21T04:00:59.910Z,78.90
2022-08-21T04:03:31.916Z,79.50
2022-08-21T04:05:59.424Z,79.30
2022-08-21T04:08:27.147Z,80.00
2022-08-21T04:10:57.664Z,79.20
2022-08-21T04:13:24.858Z,79.40
2022-08-21T04:15:51.889Z,79.60
2022-08-21T04:18:19.248Z,79.70
2022-08-21T04:20:50.730Z,79.90
2022-08-21T04:23:23.769Z,80.10
2022-08-21T04:25:52.456Z,80.10
2022-08-21T04:28:23.161Z,80.50
2022-08-21T04:30:51.985Z,80.00
2022-08-21T04:33:19.800Z,79.70
2022-08-21T04:35:54.986Z,79.80
2022-08-21T04:38:22.019Z,79.40
2022-08-21T04:40:51.058Z,80.10
2022-08-21T04:43:19.172Z,79.80
2022-08-21T04:45:48.740Z,80.20
2022-08-21T04:48:18.733Z,80.50
2022-08-21T04:50:51.991Z,80.30
2022-08-21T04:53:24.702Z,80.30
2022-08-21T04:55:54.579Z,80.30
2022-08-21T04:58:25.716Z,80.20
2022-08-21T05:00:57.079Z,80.30
2022-08-21T05:03:24.864Z,81.00
2022-08-21T05:05:54.610Z,81.20
2022-08-21T05:08:25.165Z,81.30
2022-08-21T05:10:57.008Z,81.30
2022-08-21T05:13:27.137Z,81.60
2022-08-21T05:15:54.447Z,82.00
2022-08-21T05:18:23.698Z,82.40
2022-08-21T05:20:50.894Z,82.40
2022-08-21T05:23:22.408Z,82.70
2022-08-21T05:25:49.378Z,82.60
2022-08-21T05:28:16.197Z,82.70
2022-08-21T05:30:43.128Z,82.90
2022-08-21T05:33:09.959Z,83.10
2022-08-21T05:35:38.518Z,83.10
2022-08-21T05:38:06.584Z,83.10
2022-08-21T05:40:48.102Z,83.10
2022-08-21T05:43:19.172Z,83.40
2022-08-21T05:45:46.912Z,83.50
2022-08-21T05:48:25.167Z,83.80
2022-08-21T05:50:53.205Z,84.00
2022-08-21T05:53:20.692Z,84.20
2022-08-21T05:55:48.379Z,84.30
2022-08-21T05:58:20.215Z,84.40
2022-08-21T06:00:49.029Z,84.70
2022-08-21T06:03:21.713Z,84.60
2022-08-21T06:05:48.968Z,84.90
2022-08-21T06:08:17.852Z,85.10
2022-08-21T06:10:46.168Z,85.80
2022-08-21T06:13:13.690Z,85.90
2022-08-21T06:15:40.755Z,85.80
2022-08-21T06:18:08.610Z,86.40
2022-08-21T06:20:35.587Z,85.70
2022-08-21T06:23:02.770Z,84.50
2022-08-21T06:25:30.056Z,84.00
2022-08-21T06:28:10.878Z,82.70
2022-08-21T06:30:40.407Z,82.30
2022-08-21T06:33:08.012Z,81.40
2022-08-21T06:35:35.997Z,78.60
2022-08-21T06:38:03.048Z,78.90
2022-08-21T06:40:31.082Z,76.60
2022-08-21T06:43:16.705Z,75.50
2022-08-21T06:45:45.015Z,74.90
2022-08-21T06:48:15.632Z,74.60
2022-08-21T06:50:48.049Z,73.70
2022-08-21T06:53:18.263Z,74.40
2022-08-21T06:55:45.149Z,73.90
2022-08-21T06:58:12.270Z,73.60
2022-08-21T07:00:45.203Z,73.80
2022-08-21T07:03:28.190Z,73.70
2022-08-21T07:05:59.338Z,73.90
2022-08-21T07:08:27.750Z,73.20
2022-08-21T07:10:57.158Z,73.10
2022-08-21T07:13:24.175Z,72.70
2022-08-21T07:15:51.330Z,73.00
2022-08-21T07:18:18.323Z,73.10
2022-08-21T07:20:46.129Z,72.90
2022-08-21T07:23:34.506Z,72.90
2022-08-21T07:26:01.633Z,72.90
2022-08-21T07:28:30.429Z,72.80
2022-08-21T07:31:00.461Z,72.90
2022-08-21T07:33:31.586Z,72.90
2022-08-21T07:35:58.520Z,73.10
2022-08-21T07:38:25.883Z,73.20
2022-08-21T07:40:56.823Z,73.60
2022-08-21T07:43:23.884Z,74.70
2022-08-21T07:45:50.773Z,75.10
2022-08-21T07:48:18.119Z,74.10
2022-08-21T07:50:45.150Z,74.40
2022-08-21T07:53:11.960Z,74.70
2022-08-21T07:55:41.441Z,75.40
2022-08-21T07:58:08.802Z,75.10
2022-08-21T08:00:36.197Z,74.70
2022-08-21T08:03:03.761Z,74.80
2022-08-21T08:05:34.251Z,74.90
2022-08-21T08:08:01.631Z,75.00
2022-08-21T08:10:28.944Z,75.00
2022-08-21T08:12:56.167Z,75.40
2022-08-21T08:15:26.726Z,75.50
2022-08-21T08:17:55.830Z,75.70
2022-08-21T08:20:23.737Z,75.70
2022-08-21T08:22:54.457Z,75.90
2022-08-21T08:25:23.934Z,76.00
2022-08-21T08:27:50.829Z,75.80
2022-08-21T08:30:20.047Z,75.60
2022-08-21T08:32:48.227Z,75.90
2022-08-21T08:35:16.178Z,75.90
2022-08-21T08:37:43.799Z,75.60
2022-08-21T08:40:30.156Z,75.90
2022-08-21T08:42:59.556Z,75.90
2022-08-21T08:45:28.106Z,75.60
2022-08-21T08:48:03.592Z,75.60
2022-08-21T08:50:55.533Z,75.30
2022-08-21T08:53:33.928Z,75.40
2022-08-21T08:56:03.496Z,75.10
2022-08-21T08:58:35.340Z,75.20
2022-08-21T09:01:09.418Z,75.70
2022-08-21T09:03:38.809Z,75.60
2022-08-21T09:06:30.054Z,75.80
2022-08-21T09:09:18.823Z,75.00
2022-08-21T09:11:48.375Z,75.40
2022-08-21T09:14:25.265Z,75.50
2022-08-21T09:17:30.025Z,75.40
2022-08-21T09:20:03.115Z,75.30
2022-08-21T09:22:58.717Z,75.20
2022-08-21T09:25:29.158Z,75.50
2022-08-21T09:27:56.425Z,75.00
2022-08-21T09:30:33.680Z,74.90
2022-08-21T09:33:01.047Z,74.90
2022-08-21T09:35:28.264Z,75.00
2022-08-21T09:38:03.782Z,74.90
2022-08-21T09:40:37.230Z,74.90
2022-08-21T09:43:15.979Z,74.60
2022-08-21T09:45:47.542Z,74.80
2022-08-21T09:48:16.380Z,74.50
2022-08-21T09:50:45.118Z,75.00
2022-08-21T09:53:27.668Z,74.80
2022-08-21T09:56:24.348Z,74.50
2022-08-21T09:58:53.095Z,74.40
2022-08-21T10:01:25.413Z,74.00
2022-08-21T10:04:13.998Z,74.10
2022-08-21T10:06:41.591Z,73.90
2022-08-21T10:09:21.506Z,74.10
2022-08-21T10:12:22.113Z,74.20
2022-08-21T10:14:58.365Z,73.80
2022-08-21T10:18:00.042Z,73.80
2022-08-21T10:20:41.939Z,73.90
2022-08-21T10:23:30.670Z,73.90
2022-08-21T10:26:13.118Z,73.90
2022-08-21T10:29:08.976Z,73.40
2022-08-21T10:32:05.661Z,73.50
2022-08-21T10:34:52.680Z,73.30
2022-08-21T10:37:37.576Z,73.10
2022-08-21T10:40:16.686Z,73.20
2022-08-21T10:42:52.614Z,72.90
2022-08-21T10:45:25.814Z,73.10
2022-08-21T10:47:58.390Z,72.80
2022-08-21T10:50:50.747Z,72.70
2022-08-21T10:53:41.046Z,73.20
2022-08-21T10:56:17.084Z,72.80
2022-08-21T10:59:05.420Z,72.70
2022-08-21T11:01:58.687Z,72.60
2022-08-21T11:04:55.814Z,72.20
2022-08-21T11:07:34.491Z,72.20
2022-08-21T11:10:13.604Z,71.50
2022-08-21T11:12:47.438Z,71.60
2022-08-21T11:15:28.900Z,71.40
2022-08-21T11:18:23.898Z,71.20
2022-08-21T11:21:19.154Z,70.90
2022-08-21T11:23:55.647Z,70.90
2022-08-21T11:26:44.221Z,70.80
2022-08-21T11:29:33.554Z,70.40
2022-08-21T11:32:10.503Z,70.90
2022-08-21T11:34:46.474Z,70.50
2022-08-21T11:37:34.959Z,70.60
2022-08-21T11:40:28.115Z,70.60
2022-08-21T11:43:00.338Z,70.20
2022-08-21T11:45:52.839Z,69.40
2022-08-21T11:48:38.247Z,70.00
2022-08-21T11:51:11.902Z,69.80
2022-08-21T11:53:54.027Z,70.00
2022-08-21T11:56:41.329Z,70.20
2022-08-21T11:59:23.036Z,70.30
2022-08-21T12:01:52.619Z,70.30
2022-08-21T12:04:36.314Z,70.40
2022-08-21T12:07:30.219Z,70.00
2022-08-21T12:09:59.732Z,70.20
2022-08-21T12:12:26.682Z,69.80
2022-08-21T12:15:08.868Z,69.50
2022-08-21T12:17:39.316Z,69.70
2022-08-21T12:20:20.992Z,69.60
2022-08-21T12:23:03.086Z,69.20
2022-08-21T12:25:39.441Z,68.50
2022-08-21T12:28:22.528Z,68.70
2022-08-21T12:30:49.849Z,67.60
2022-08-21T12:33:23.315Z,67.90
2022-08-21T12:36:03.361Z,67.20
2022-08-21T12:38:51.925Z,67.40
2022-08-21T12:41:31.334Z,67.60
2022-08-21T12:44:08.174Z,67.20
2022-08-21T12:46:52.403Z,67.30
2022-08-21T12:49:28.487Z,66.80
2022-08-21T12:52:21.209Z,65.80
2022-08-21T12:54:48.250Z,66.30
2022-08-21T12:57:24.227Z,66.50
2022-08-21T13:00:00.074Z,66.80
2022-08-21T13:02:36.548Z,66.90
2022-08-21T13:05:07.051Z,66.90
2022-08-21T13:07:37.128Z,67.00
2022-08-21T13:10:17.486Z,66.70
2022-08-21T13:12:47.335Z,66.50
2022-08-21T13:15:25.811Z,66.50
2022-08-21T13:18:04.605Z,66.70
2022-08-21T13:20:39.775Z,66.70
2022-08-21T13:23:24.810Z,66.90
2022-08-21T13:25:51.860Z,66.90
2022-08-21T13:28:19.254Z,66.70
2022-08-21T13:30:48.532Z,66.80
2022-08-21T13:33:19.733Z,67.30
2022-08-21T13:35:51.926Z,66.90
2022-08-21T13:38:27.299Z,66.70
2022-08-21T13:40:58.820Z,66.80
2022-08-21T13:43:37.634Z,66.60
2022-08-21T13:46:12.815Z,66.80
2022-08-21T13:48:40.205Z,66.60
2022-08-21T13:51:07.930Z,66.60
2022-08-21T13:53:36.698Z,66.40
2022-08-21T13:56:05.664Z,66.60
2022-08-21T13:58:45.196Z,66.70
2022-08-21T14:01:32.746Z,66.90
2022-08-21T14:04:08.656Z,65.80
2022-08-21T14:06:37.924Z,66.30
2022-08-21T14:09:30.797Z,65.90
2022-08-21T14:12:00.929Z,65.80
2022-08-21T14:14:34.358Z,65.60
2022-08-21T14:17:23.978Z,66.00
2022-08-21T14:19:51.793Z,66.00
2022-08-21T14:22:44.978Z,65.60
2022-08-21T14:25:17.031Z,65.80
2022-08-21T14:27:57.393Z,66.10
2022-08-21T14:30:36.627Z,65.50
2022-08-21T14:33:13.383Z,65.30
2022-08-21T14:35:41.545Z,65.20
2022-08-21T14:38:20.175Z,66.00
2022-08-21T14:40:56.859Z,65.20
2022-08-21T14:43:24.255Z,65.40
2022-08-21T14:45:51.128Z,65.30
2022-08-21T14:48:18.478Z,65.30
2022-08-21T14:50:45.836Z,65.10
2022-08-21T14:53:13.380Z,65.10
2022-08-21T14:55:59.846Z,65.30
2022-08-21T14:58:27.429Z,65.30
2022-08-21T15:00:59.108Z,65.20
2022-08-21T15:03:29.305Z,65.20
2022-08-21T15:05:56.781Z,65.40
2022-08-21T15:08:24.202Z,65.40
2022-08-21T15:11:11.222Z,65.50
2022-08-21T15:13:39.294Z,65.60
2022-08-21T15:16:06.802Z,65.60
2022-08-21T15:18:33.787Z,65.80
2022-08-21T15:21:00.661Z,65.60
2022-08-21T15:23:30.156Z,65.70
2022-08-21T15:25:59.743Z,65.70
2022-08-21T15:28:31.799Z,65.80
2022-08-21T15:31:00.624Z,65.80
2022-08-21T15:33:27.528Z,65.80
2022-08-21T15:35:57.522Z,65.90
2022-08-21T15:38:25.196Z,66.00
2022-08-21T15:40:52.953Z,66.10
2022-08-21T15:43:54.659Z,66.20
2022-08-21T15:46:22.769Z,66.20
2022-08-21T15:48:50.502Z,66.30
2022-08-21T15:51:18.420Z,66.30
2022-08-21T15:53:45.422Z,66.20
2022-08-21T15:56:28.642Z,66.40
2022-08-21T15:59:02.636Z,66.50
2022-08-21T16:01:29.929Z,66.50
2022-08-21T16:04:15.504Z,66.50
2022-08-21T16:06:55.171Z,66.60
2022-08-21T16:09:26.453Z,66.60
2022-08-21T16:11:54.179Z,66.50
2022-08-21T16:14:21.084Z,66.60
2022-08-21T16:16:47.980Z,66.60
2022-08-21T16:19:15.417Z,66.60
2022-08-21T16:21:42.273Z,66.70
2022-08-21T16:24:09.119Z,66.60
2022-08-21T16:26:36.106Z,66.80
2022-08-21T16:29:04.468Z,66.80
2022-08-21T16:31:32.941Z,66.80
2022-08-21T16:34:00.683Z,66.80
2022-08-21T16:36:28.102Z,66.80
2022-08-21T16:38:56.561Z,66.80
2022-08-21T16:41:25.682Z,66.90
2022-08-21T16:43:53.054Z,67.20
2022-08-21T16:46:21.813Z,67.50
2022-08-21T16:48:51.125Z,67.40
2022-08-21T16:51:18.355Z,68.00
2022-08-21T16:53:45.231Z,68.50
2022-08-21T16:56:14.365Z,69.10
2022-08-21T16:58:47.564Z,69.30
2022-08-21T17:01:17.877Z,69.30
2022-08-21T17:03:47.614Z,70.00
2022-08-21T17:06:18.697Z,70.70
2022-08-21T17:08:46.267Z,70.90
2022-08-21T17:11:37.234Z,70.80
2022-08-21T17:14:12.277Z,70.60
2022-08-21T17:16:41.773Z,70.70
2022-08-21T17:19:08.716Z,70.80
2022-08-21T17:21:36.462Z,70.50
2022-08-21T17:24:03.551Z,70.50
2022-08-21T17:26:30.750Z,70.80
2022-08-21T17:28:57.758Z,70.70
2022-08-21T17:31:24.641Z,70.70
2022-08-21T17:33:54.247Z,70.60
2022-08-21T17:36:29.510Z,71.40
2022-08-21T17:38:59.601Z,71.10
2022-08-21T17:41:27.154Z,72.00
2022-08-21T17:43:55.134Z,72.30
2022-08-21T17:46:23.973Z,72.40
2022-08-21T17:48:50.976Z,72.30
2022-08-21T17:51:18.339Z,72.90
2022-08-21T17:53:45.850Z,72.60
2022-08-21T17:56:15.015Z,73.10
2022-08-21T17:58:51.024Z,73.10
2022-08-21T18:01:19.372Z,73.60
2022-08-21T18:03:47.840Z,72.90
2022-08-21T18:06:18.374Z,74.10
2022-08-21T18:08:46.925Z,75.30
2022-08-21T18:11:23.991Z,76.50
2022-08-21T18:13:54.217Z,76.90
2022-08-21T18:16:22.024Z,77.60
2022-08-21T18:18:51.459Z,78.70
2022-08-21T18:21:18.521Z,79.40
2022-08-21T18:23:45.392Z,79.60
2022-08-21T18:26:21.002Z,79.90
2022-08-21T18:28:48.291Z,79.60
2022-08-21T18:31:15.213Z,80.00
2022-08-21T18:33:55.964Z,79.30
2022-08-21T18:36:27.654Z,79.40
2022-08-21T18:39:08.596Z,80.50
2022-08-21T18:41:44.140Z,80.30
2022-08-21T18:44:12.203Z,81.40
2022-08-21T18:46:38.936Z,81.10
2022-08-21T18:49:07.073Z,81.80
2022-08-21T18:51:33.809Z,81.80
2022-08-21T18:54:00.652Z,81.90
2022-08-21T18:56:27.826Z,82.10
2022-08-21T18:58:58.284Z,83.10
2022-08-21T19:01:26.358Z,83.30
2022-08-21T19:03:53.539Z,83.30
2022-08-21T19:06:22.968Z,83.20
2022-08-21T19:08:53.014Z,83.10
2022-08-21T19:11:24.849Z,82.80
2022-08-21T19:13:53.433Z,82.10
2022-08-21T19:16:21.937Z,82.00
2022-08-21T19:18:48.906Z,81.60
2022-08-21T19:21:16.449Z,81.60
2022-08-21T19:23:44.514Z,82.00
2022-08-21T19:26:12.118Z,81.70
2022-08-21T19:28:44.876Z,81.20
2022-08-21T19:31:23.559Z,81.40
2022-08-21T19:34:01.757Z,81.50
2022-08-21T19:36:29.291Z,81.70
2022-08-21T19:38:57.130Z,82.00
2022-08-21T19:41:27.643Z,81.70
2022-08-21T19:43:58.728Z,81.20
2022-08-21T19:46:35.316Z,81.30
2022-08-21T19:49:04.943Z,81.00
2022-08-21T19:51:35.154Z,81.30
2022-08-21T19:54:03.015Z,81.40
2022-08-21T19:56:34.124Z,81.40
2022-08-21T19:59:03.911Z,81.40
2022-08-21T20:01:33.681Z,81.00
2022-08-21T20:04:00.633Z,81.40
2022-08-21T20:06:27.992Z,81.20
2022-08-21T20:08:55.911Z,81.50
2022-08-21T20:11:31.517Z,81.60
2022-08-21T20:13:59.601Z,81.70
2022-08-21T20:16:28.615Z,81.80
2022-08-21T20:18:56.072Z,80.90
2022-08-21T20:21:23.465Z,80.90
2022-08-21T20:23:50.769Z,79.20
2022-08-21T20:26:19.333Z,79.60
2022-08-21T20:28:50.331Z,80.00
2022-08-21T20:31:17.747Z,80.50
2022-08-21T20:33:49.546Z,80.80
2022-08-21T20:36:17.733Z,80.20
2022-08-21T20:38:48.198Z,80.20
2022-08-21T20:41:17.962Z,80.20
2022-08-21T20:43:52.182Z,80.70
2022-08-21T20:46:25.210Z,80.80
2022-08-21T20:48:53.166Z,80.90
2022-08-21T20:51:46.476Z,81.20
2022-08-21T20:54:45.311Z,81.00
2022-08-21T20:57:45.620Z,80.80
2022-08-21T21:00:20.955Z,81.00
2022-08-21T21:03:04.238Z,81.40
2022-08-21T21:05:40.774Z,81.20
2022-08-21T21:08:27.935Z,81.10
2022-08-21T21:11:04.915Z,81.20
2022-08-21T21:13:53.220Z,80.90
2022-08-21T21:16:27.821Z,80.00
2022-08-21T21:19:10.843Z,78.90
2022-08-21T21:21:51.721Z,79.70
2022-08-21T21:24:48.403Z,80.50
2022-08-21T21:27:50.945Z,80.10
2022-08-21T21:30:22.693Z,80.00
2022-08-21T21:32:51.267Z,80.40
2022-08-21T21:35:32.972Z,80.60
2022-08-21T21:38:32.291Z,80.90
2022-08-21T21:41:24.927Z,81.00
2022-08-21T21:44:10.028Z,80.60
2022-08-21T21:46:48.665Z,80.70
2022-08-21T21:49:49.649Z,81.10
2022-08-21T21:52:29.067Z,81.30
2022-08-21T21:55:28.190Z,81.10
2022-08-21T21:58:18.766Z,80.60
2022-08-21T22:01:01.134Z,80.40
2022-08-21T22:03:57.514Z,80.80
2022-08-21T22:06:39.876Z,81.00
2022-08-21T22:09:35.036Z,81.00
2022-08-21T22:12:19.316Z,81.00
2022-08-21T22:14:50.001Z,81.00
2022-08-21T22:17:51.064Z,81.40
2022-08-21T22:20:28.665Z,81.60
2022-08-21T22:22:57.317Z,81.40
2022-08-21T22:25:29.068Z,81.40
2022-08-21T22:28:10.312Z,81.30
2022-08-21T22:31:06.250Z,81.00
2022-08-21T22:33:35.077Z,81.30
2022-08-21T22:36:19.521Z,81.20
2022-08-21T22:38:47.770Z,81.70
2022-08-21T22:41:29.702Z,81.70
2022-08-21T22:44:06.519Z,81.80
2022-08-21T22:46:57.979Z,81.70
2022-08-21T22:49:47.298Z,81.80
2022-08-21T22:52:25.049Z,81.80
2022-08-21T22:54:58.250Z,82.00
2022-08-21T22:57:34.313Z,82.00
2022-08-21T23:00:13.460Z,82.20
2022-08-21T23:05:39.132Z,82.10
2022-08-21T23:08:34.101Z,82.30
2022-08-21T23:11:12.607Z,82.60
2022-08-21T23:13:50.762Z,82.40
2022-08-21T23:16:26.815Z,82.30
2022-08-21T23:19:15.736Z,82.50
2022-08-21T23:22:28.376Z,82.40
2022-08-21T23:25:14.842Z,82.00
2022-08-21T23:28:25.827Z,81.90
2022-08-21T23:31:11.843Z,82.20
2022-08-21T23:33:58.002Z,82.20
2022-08-21T23:37:00.767Z,81.70
2022-08-21T23:40:06.330Z,81.70
2022-08-21T23:42:57.929Z,81.70
2022-08-21T23:46:02.223Z,81.60
2022-08-21T23:49:05.947Z,81.60
2022-08-21T23:51:38.329Z,81.30
2022-08-21T23:54:17.506Z,81.10
2022-08-21T23:56:58.763Z,81.10
2022-08-21T23:59:28.955Z,81.30
